sensor_id;sensor_type;location;lat;lon;timestamp;temperature;humidity
15450;DHT22;7826;49.784;9.934;2022-07-17T00:00:19;15.40;72.50
15450;DHT22;7826;49.784;9.934;2022-07-17T00:02:46;15.30;72.60
15450;DHT22;7826;49.784;9.934;2022-07-17T00:05:14;15.30;72.50
15450;DHT22;7826;49.784;9.934;2022-07-17T00:07:41;15.30;72.40
15450;DHT22;7826;49.784;9.934;2022-07-17T00:10:08;15.20;72.20
15450;DHT22;7826;49.784;9.934;2022-07-17T00:12:35;15.10;72.60
15450;DHT22;7826;49.784;9.934;2022-07-17T00:15:01;15.20;72.70
15450;DHT22;7826;49.784;9.934;2022-07-17T00:17:27;15.20;72.50
15450;DHT22;7826;49.784;9.934;2022-07-17T00:19:54;15.20;72.50
15450;DHT22;7826;49.784;9.934;2022-07-17T00:22:20;15.20;72.40
15450;DHT22;7826;49.784;9.934;2022-07-17T00:24:46;15.20;72.10
15450;DHT22;7826;49.784;9.934;2022-07-17T00:27:12;15.10;71.00
15450;DHT22;7826;49.784;9.934;2022-07-17T00:29:39;15.10;70.90
15450;DHT22;7826;49.784;9.934;2022-07-17T00:32:05;15.20;71.10
15450;DHT22;7826;49.784;9.934;2022-07-17T00:34:31;15.20;71.20
15450;DHT22;7826;49.784;9.934;2022-07-17T00:36:58;15.20;71.50
15450;DHT22;7826;49.784;9.934;2022-07-17T00:39:24;15.20;71.30
15450;DHT22;7826;49.784;9.934;2022-07-17T00:41:50;15.20;71.80
15450;DHT22;7826;49.784;9.934;2022-07-17T00:44:17;15.20;71.90
15450;DHT22;7826;49.784;9.934;2022-07-17T00:46:43;15.10;72.00
15450;DHT22;7826;49.784;9.934;2022-07-17T00:49:09;15.10;71.90
15450;DHT22;7826;49.784;9.934;2022-07-17T00:51:36;15.00;72.10
15450;DHT22;7826;49.784;9.934;2022-07-17T00:54:03;14.90;71.70
15450;DHT22;7826;49.784;9.934;2022-07-17T00:56:31;14.70;71.60
15450;DHT22;7826;49.784;9.934;2022-07-17T00:59:00;14.60;72.70
15450;DHT22;7826;49.784;9.934;2022-07-17T01:01:27;14.50;72.60
15450;DHT22;7826;49.784;9.934;2022-07-17T01:03:55;14.40;73.00
15450;DHT22;7826;49.784;9.934;2022-07-17T01:06:21;14.30;73.50
15450;DHT22;7826;49.784;9.934;2022-07-17T01:08:47;14.30;73.80
15450;DHT22;7826;49.784;9.934;2022-07-17T01:11:13;14.30;74.20
15450;DHT22;7826;49.784;9.934;2022-07-17T01:13:40;14.20;74.40
15450;DHT22;7826;49.784;9.934;2022-07-17T01:16:07;14.20;74.40
15450;DHT22;7826;49.784;9.934;2022-07-17T01:18:34;14.20;74.20
15450;DHT22;7826;49.784;9.934;2022-07-17T01:21:07;14.20;74.20
15450;DHT22;7826;49.784;9.934;2022-07-17T01:23:34;14.10;74.30
15450;DHT22;7826;49.784;9.934;2022-07-17T01:26:00;14.00;74.40
15450;DHT22;7826;49.784;9.934;2022-07-17T01:28:26;14.00;74.60
15450;DHT22;7826;49.784;9.934;2022-07-17T01:30:53;14.00;74.60
15450;DHT22;7826;49.784;9.934;2022-07-17T01:33:20;14.00;74.60
15450;DHT22;7826;49.784;9.934;2022-07-17T01:35:46;14.00;74.70
15450;DHT22;7826;49.784;9.934;2022-07-17T01:38:12;13.90;75.00
15450;DHT22;7826;49.784;9.934;2022-07-17T01:40:39;13.90;75.30
15450;DHT22;7826;49.784;9.934;2022-07-17T01:43:06;13.90;75.30
15450;DHT22;7826;49.784;9.934;2022-07-17T01:45:32;13.80;75.20
15450;DHT22;7826;49.784;9.934;2022-07-17T01:47:58;13.80;75.70
15450;DHT22;7826;49.784;9.934;2022-07-17T01:50:24;13.80;75.70
15450;DHT22;7826;49.784;9.934;2022-07-17T01:52:51;13.80;75.80
15450;DHT22;7826;49.784;9.934;2022-07-17T01:55:17;13.70;76.00
15450;DHT22;7826;49.784;9.934;2022-07-17T01:57:44;13.60;76.30
15450;DHT22;7826;49.784;9.934;2022-07-17T02:00:15;13.60;76.60
15450;DHT22;7826;49.784;9.934;2022-07-17T02:02:44;13.50;76.80
15450;DHT22;7826;49.784;9.934;2022-07-17T02:05:11;13.50;77.00
15450;DHT22;7826;49.784;9.934;2022-07-17T02:07:37;13.40;77.20
15450;DHT22;7826;49.784;9.934;2022-07-17T02:10:08;13.40;77.50
15450;DHT22;7826;49.784;9.934;2022-07-17T02:12:34;13.40;77.60
15450;DHT22;7826;49.784;9.934;2022-07-17T02:15:01;13.30;77.30
15450;DHT22;7826;49.784;9.934;2022-07-17T02:17:28;13.30;78.50
15450;DHT22;7826;49.784;9.934;2022-07-17T02:19:54;13.30;78.20
15450;DHT22;7826;49.784;9.934;2022-07-17T02:22:20;13.30;78.20
15450;DHT22;7826;49.784;9.934;2022-07-17T02:24:46;13.20;77.80
15450;DHT22;7826;49.784;9.934;2022-07-17T02:27:13;13.10;77.90
15450;DHT22;7826;49.784;9.934;2022-07-17T02:29:39;13.10;78.50
15450;DHT22;7826;49.784;9.934;2022-07-17T02:32:06;13.10;79.50
15450;DHT22;7826;49.784;9.934;2022-07-17T02:34:32;13.10;78.80
15450;DHT22;7826;49.784;9.934;2022-07-17T02:36:59;13.10;79.20
15450;DHT22;7826;49.784;9.934;2022-07-17T02:39:25;13.10;79.40
15450;DHT22;7826;49.784;9.934;2022-07-17T02:41:51;13.10;79.30
15450;DHT22;7826;49.784;9.934;2022-07-17T02:44:17;13.10;79.60
15450;DHT22;7826;49.784;9.934;2022-07-17T02:46:44;13.00;79.80
15450;DHT22;7826;49.784;9.934;2022-07-17T02:49:10;13.00;79.90
15450;DHT22;7826;49.784;9.934;2022-07-17T02:51:36;13.00;80.00
15450;DHT22;7826;49.784;9.934;2022-07-17T02:54:02;13.00;80.30
15450;DHT22;7826;49.784;9.934;2022-07-17T02:56:29;13.00;80.60
15450;DHT22;7826;49.784;9.934;2022-07-17T02:58:55;13.00;80.70
15450;DHT22;7826;49.784;9.934;2022-07-17T03:01:21;13.00;80.60
15450;DHT22;7826;49.784;9.934;2022-07-17T03:03:48;13.00;80.80
15450;DHT22;7826;49.784;9.934;2022-07-17T03:06:14;13.00;80.70
15450;DHT22;7826;49.784;9.934;2022-07-17T03:08:40;13.00;81.00
15450;DHT22;7826;49.784;9.934;2022-07-17T03:11:07;13.00;81.10
15450;DHT22;7826;49.784;9.934;2022-07-17T03:13:33;12.90;81.20
15450;DHT22;7826;49.784;9.934;2022-07-17T03:15:59;12.90;81.20
15450;DHT22;7826;49.784;9.934;2022-07-17T03:18:44;12.90;81.60
15450;DHT22;7826;49.784;9.934;2022-07-17T03:21:28;12.80;82.10
15450;DHT22;7826;49.784;9.934;2022-07-17T03:23:54;12.80;82.70
15450;DHT22;7826;49.784;9.934;2022-07-17T03:26:20;12.80;82.60
15450;DHT22;7826;49.784;9.934;2022-07-17T03:28:46;12.70;83.00
15450;DHT22;7826;49.784;9.934;2022-07-17T03:31:13;12.70;83.10
15450;DHT22;7826;49.784;9.934;2022-07-17T03:33:39;12.70;83.20
15450;DHT22;7826;49.784;9.934;2022-07-17T03:36:06;12.70;83.20
15450;DHT22;7826;49.784;9.934;2022-07-17T03:38:33;12.70;82.80
15450;DHT22;7826;49.784;9.934;2022-07-17T03:40:59;12.60;82.50
15450;DHT22;7826;49.784;9.934;2022-07-17T03:43:25;12.60;82.60
15450;DHT22;7826;49.784;9.934;2022-07-17T03:45:52;12.60;82.50
15450;DHT22;7826;49.784;9.934;2022-07-17T03:48:18;12.60;82.50
15450;DHT22;7826;49.784;9.934;2022-07-17T03:50:44;12.60;82.50
15450;DHT22;7826;49.784;9.934;2022-07-17T03:53:11;12.50;82.70
15450;DHT22;7826;49.784;9.934;2022-07-17T03:55:37;12.60;82.80
15450;DHT22;7826;49.784;9.934;2022-07-17T03:58:03;12.60;82.60
15450;DHT22;7826;49.784;9.934;2022-07-17T04:00:30;12.50;82.70
15450;DHT22;7826;49.784;9.934;2022-07-17T04:02:56;12.50;83.10
15450;DHT22;7826;49.784;9.934;2022-07-17T04:05:22;12.60;83.00
15450;DHT22;7826;49.784;9.934;2022-07-17T04:07:49;12.70;83.20
15450;DHT22;7826;49.784;9.934;2022-07-17T04:10:15;12.60;83.20
15450;DHT22;7826;49.784;9.934;2022-07-17T04:12:42;12.60;83.20
15450;DHT22;7826;49.784;9.934;2022-07-17T04:15:09;12.70;83.10
15450;DHT22;7826;49.784;9.934;2022-07-17T04:17:35;12.70;83.10
15450;DHT22;7826;49.784;9.934;2022-07-17T04:20:02;12.80;82.90
15450;DHT22;7826;49.784;9.934;2022-07-17T04:22:29;12.80;82.90
15450;DHT22;7826;49.784;9.934;2022-07-17T04:24:55;12.90;83.00
15450;DHT22;7826;49.784;9.934;2022-07-17T04:27:21;12.90;82.90
15450;DHT22;7826;49.784;9.934;2022-07-17T04:29:47;13.00;82.40
15450;DHT22;7826;49.784;9.934;2022-07-17T04:32:14;13.20;82.10
15450;DHT22;7826;49.784;9.934;2022-07-17T04:34:40;13.50;81.80
15450;DHT22;7826;49.784;9.934;2022-07-17T04:37:06;14.00;81.40
15450;DHT22;7826;49.784;9.934;2022-07-17T04:39:33;14.60;79.40
15450;DHT22;7826;49.784;9.934;2022-07-17T04:41:59;15.00;76.80
15450;DHT22;7826;49.784;9.934;2022-07-17T04:44:25;15.40;75.70
15450;DHT22;7826;49.784;9.934;2022-07-17T04:46:52;15.80;73.60
15450;DHT22;7826;49.784;9.934;2022-07-17T04:49:18;16.10;72.20
15450;DHT22;7826;49.784;9.934;2022-07-17T04:51:44;16.30;70.70
15450;DHT22;7826;49.784;9.934;2022-07-17T04:54:11;16.40;69.80
15450;DHT22;7826;49.784;9.934;2022-07-17T04:56:37;16.60;69.60
15450;DHT22;7826;49.784;9.934;2022-07-17T04:59:03;16.90;69.00
15450;DHT22;7826;49.784;9.934;2022-07-17T05:01:30;17.10;67.60
15450;DHT22;7826;49.784;9.934;2022-07-17T05:03:56;17.20;67.10
15450;DHT22;7826;49.784;9.934;2022-07-17T05:06:22;17.70;66.40
15450;DHT22;7826;49.784;9.934;2022-07-17T05:08:49;17.90;65.10
15450;DHT22;7826;49.784;9.934;2022-07-17T05:11:15;18.30;64.10
15450;DHT22;7826;49.784;9.934;2022-07-17T05:13:41;18.50;63.00
15450;DHT22;7826;49.784;9.934;2022-07-17T05:16:07;18.70;62.10
15450;DHT22;7826;49.784;9.934;2022-07-17T05:18:33;18.80;61.00
15450;DHT22;7826;49.784;9.934;2022-07-17T05:21:00;18.70;59.90
15450;DHT22;7826;49.784;9.934;2022-07-17T05:23:26;18.80;60.20
15450;DHT22;7826;49.784;9.934;2022-07-17T05:25:52;18.80;59.90
15450;DHT22;7826;49.784;9.934;2022-07-17T05:28:18;19.10;59.70
15450;DHT22;7826;49.784;9.934;2022-07-17T05:30:45;19.10;59.00
15450;DHT22;7826;49.784;9.934;2022-07-17T05:33:11;19.20;59.10
15450;DHT22;7826;49.784;9.934;2022-07-17T05:35:37;19.30;58.90
15450;DHT22;7826;49.784;9.934;2022-07-17T05:38:03;19.40;58.10
15450;DHT22;7826;49.784;9.934;2022-07-17T05:40:31;19.40;57.50
15450;DHT22;7826;49.784;9.934;2022-07-17T05:42:57;19.40;56.80
15450;DHT22;7826;49.784;9.934;2022-07-17T05:45:24;19.30;56.60
15450;DHT22;7826;49.784;9.934;2022-07-17T05:47:50;19.40;56.90
15450;DHT22;7826;49.784;9.934;2022-07-17T05:50:16;19.50;57.30
15450;DHT22;7826;49.784;9.934;2022-07-17T05:52:43;19.50;56.70
15450;DHT22;7826;49.784;9.934;2022-07-17T05:55:09;19.50;56.30
15450;DHT22;7826;49.784;9.934;2022-07-17T05:57:36;19.60;56.30
15450;DHT22;7826;49.784;9.934;2022-07-17T06:00:03;19.70;56.30
15450;DHT22;7826;49.784;9.934;2022-07-17T06:02:30;19.80;56.30
15450;DHT22;7826;49.784;9.934;2022-07-17T06:04:56;19.90;55.40
15450;DHT22;7826;49.784;9.934;2022-07-17T06:07:22;19.80;55.50
15450;DHT22;7826;49.784;9.934;2022-07-17T06:09:48;19.90;56.00
15450;DHT22;7826;49.784;9.934;2022-07-17T06:12:14;19.90;55.10
15450;DHT22;7826;49.784;9.934;2022-07-17T06:14:41;20.00;55.50
15450;DHT22;7826;49.784;9.934;2022-07-17T06:17:07;20.20;55.70
15450;DHT22;7826;49.784;9.934;2022-07-17T06:19:36;20.50;55.70
15450;DHT22;7826;49.784;9.934;2022-07-17T06:22:08;20.80;54.60
15450;DHT22;7826;49.784;9.934;2022-07-17T06:24:34;20.90;54.40
15450;DHT22;7826;49.784;9.934;2022-07-17T06:27:03;20.90;53.40
15450;DHT22;7826;49.784;9.934;2022-07-17T06:29:29;20.90;52.90
15450;DHT22;7826;49.784;9.934;2022-07-17T06:31:56;21.00;53.80
15450;DHT22;7826;49.784;9.934;2022-07-17T06:34:29;21.20;52.80
15450;DHT22;7826;49.784;9.934;2022-07-17T06:37:05;21.50;53.50
15450;DHT22;7826;49.784;9.934;2022-07-17T06:39:36;21.80;52.80
15450;DHT22;7826;49.784;9.934;2022-07-17T06:42:04;22.10;51.70
15450;DHT22;7826;49.784;9.934;2022-07-17T06:44:31;22.10;51.10
15450;DHT22;7826;49.784;9.934;2022-07-17T06:47:26;22.30;51.30
15450;DHT22;7826;49.784;9.934;2022-07-17T06:49:56;22.40;50.60
15450;DHT22;7826;49.784;9.934;2022-07-17T06:57:13;22.70;50.00
15450;DHT22;7826;49.784;9.934;2022-07-17T07:00:40;23.00;49.20
15450;DHT22;7826;49.784;9.934;2022-07-17T07:03:13;23.40;49.90
15450;DHT22;7826;49.784;9.934;2022-07-17T07:05:49;23.90;49.60
15450;DHT22;7826;49.784;9.934;2022-07-17T07:08:21;24.20;48.00
15450;DHT22;7826;49.784;9.934;2022-07-17T07:11:16;24.20;46.50
15450;DHT22;7826;49.784;9.934;2022-07-17T07:14:06;24.30;46.50
15450;DHT22;7826;49.784;9.934;2022-07-17T07:16:49;24.30;45.80
15450;DHT22;7826;49.784;9.934;2022-07-17T07:23:47;24.30;43.30
15450;DHT22;7826;49.784;9.934;2022-07-17T07:26:16;24.60;44.00
15450;DHT22;7826;49.784;9.934;2022-07-17T07:28:43;24.80;43.80
15450;DHT22;7826;49.784;9.934;2022-07-17T07:31:10;25.00;42.90
15450;DHT22;7826;49.784;9.934;2022-07-17T07:33:37;25.30;42.20
15450;DHT22;7826;49.784;9.934;2022-07-17T07:36:14;25.50;41.80
15450;DHT22;7826;49.784;9.934;2022-07-17T07:38:52;25.40;41.50
15450;DHT22;7826;49.784;9.934;2022-07-17T07:41:21;25.40;40.60
15450;DHT22;7826;49.784;9.934;2022-07-17T07:43:50;25.60;41.80
15450;DHT22;7826;49.784;9.934;2022-07-17T07:46:16;26.40;42.00
15450;DHT22;7826;49.784;9.934;2022-07-17T07:48:42;27.10;39.80
15450;DHT22;7826;49.784;9.934;2022-07-17T07:51:11;27.50;39.00
15450;DHT22;7826;49.784;9.934;2022-07-17T07:53:38;28.10;38.00
15450;DHT22;7826;49.784;9.934;2022-07-17T07:56:05;27.90;36.50
15450;DHT22;7826;49.784;9.934;2022-07-17T07:58:31;27.80;37.00
15450;DHT22;7826;49.784;9.934;2022-07-17T08:00:57;28.10;36.90
15450;DHT22;7826;49.784;9.934;2022-07-17T08:03:24;28.20;37.90
15450;DHT22;7826;49.784;9.934;2022-07-17T08:05:50;28.00;35.60
15450;DHT22;7826;49.784;9.934;2022-07-17T08:08:33;27.80;37.20
15450;DHT22;7826;49.784;9.934;2022-07-17T08:10:59;28.10;36.60
15450;DHT22;7826;49.784;9.934;2022-07-17T08:13:26;28.60;36.60
15450;DHT22;7826;49.784;9.934;2022-07-17T08:15:52;29.90;36.80
15450;DHT22;7826;49.784;9.934;2022-07-17T08:18:19;30.30;34.60
15450;DHT22;7826;49.784;9.934;2022-07-17T08:20:46;30.70;33.30
15450;DHT22;7826;49.784;9.934;2022-07-17T08:23:12;30.60;32.40
15450;DHT22;7826;49.784;9.934;2022-07-17T08:25:38;30.50;33.20
15450;DHT22;7826;49.784;9.934;2022-07-17T08:28:05;31.50;33.60
15450;DHT22;7826;49.784;9.934;2022-07-17T08:30:32;31.90;31.20
15450;DHT22;7826;49.784;9.934;2022-07-17T08:33:02;31.50;30.90
15450;DHT22;7826;49.784;9.934;2022-07-17T08:35:29;30.90;31.90
15450;DHT22;7826;49.784;9.934;2022-07-17T08:37:55;31.20;32.00
15450;DHT22;7826;49.784;9.934;2022-07-17T08:40:26;31.80;31.90
15450;DHT22;7826;49.784;9.934;2022-07-17T08:42:54;32.60;30.80
15450;DHT22;7826;49.784;9.934;2022-07-17T08:45:21;32.90;29.50
15450;DHT22;7826;49.784;9.934;2022-07-17T08:47:50;32.90;29.80
15450;DHT22;7826;49.784;9.934;2022-07-17T08:50:21;32.80;28.90
15450;DHT22;7826;49.784;9.934;2022-07-17T08:52:49;32.30;29.60
15450;DHT22;7826;49.784;9.934;2022-07-17T08:55:15;32.10;29.30
15450;DHT22;7826;49.784;9.934;2022-07-17T08:57:43;31.80;30.00
15450;DHT22;7826;49.784;9.934;2022-07-17T09:00:14;33.10;31.00
15450;DHT22;7826;49.784;9.934;2022-07-17T09:03:05;33.40;29.30
15450;DHT22;7826;49.784;9.934;2022-07-17T09:05:39;32.70;28.70
15450;DHT22;7826;49.784;9.934;2022-07-17T09:08:08;32.60;28.60
15450;DHT22;7826;49.784;9.934;2022-07-17T09:10:39;32.50;28.70
15450;DHT22;7826;49.784;9.934;2022-07-17T09:13:23;32.70;29.80
15450;DHT22;7826;49.784;9.934;2022-07-17T09:15:52;33.40;28.70
15450;DHT22;7826;49.784;9.934;2022-07-17T09:18:19;33.40;28.30
15450;DHT22;7826;49.784;9.934;2022-07-17T09:20:47;33.20;28.40
15450;DHT22;7826;49.784;9.934;2022-07-17T09:23:13;32.90;27.50
15450;DHT22;7826;49.784;9.934;2022-07-17T09:25:46;32.40;29.80
15450;DHT22;7826;49.784;9.934;2022-07-17T09:28:14;33.00;28.70
15450;DHT22;7826;49.784;9.934;2022-07-17T09:30:47;33.30;28.90
15450;DHT22;7826;49.784;9.934;2022-07-17T09:33:19;33.70;27.90
15450;DHT22;7826;49.784;9.934;2022-07-17T09:35:49;32.80;28.80
15450;DHT22;7826;49.784;9.934;2022-07-17T09:38:48;32.80;28.90
15450;DHT22;7826;49.784;9.934;2022-07-17T09:41:17;32.90;28.00
15450;DHT22;7826;49.784;9.934;2022-07-17T09:43:47;32.30;29.20
15450;DHT22;7826;49.784;9.934;2022-07-17T09:46:27;32.40;28.20
15450;DHT22;7826;49.784;9.934;2022-07-17T09:48:56;32.10;27.90
15450;DHT22;7826;49.784;9.934;2022-07-17T09:51:24;31.50;29.10
15450;DHT22;7826;49.784;9.934;2022-07-17T09:53:54;32.10;29.80
15450;DHT22;7826;49.784;9.934;2022-07-17T09:56:24;32.10;28.40
15450;DHT22;7826;49.784;9.934;2022-07-17T09:58:53;31.90;28.40
15450;DHT22;7826;49.784;9.934;2022-07-17T10:01:20;31.80;29.60
15450;DHT22;7826;49.784;9.934;2022-07-17T10:03:47;31.50;28.70
15450;DHT22;7826;49.784;9.934;2022-07-17T10:06:18;31.00;29.10
15450;DHT22;7826;49.784;9.934;2022-07-17T10:08:45;30.90;29.70
15450;DHT22;7826;49.784;9.934;2022-07-17T10:11:13;30.90;29.80
15450;DHT22;7826;49.784;9.934;2022-07-17T10:13:44;31.30;30.00
15450;DHT22;7826;49.784;9.934;2022-07-17T10:16:32;31.20;29.70
15450;DHT22;7826;49.784;9.934;2022-07-17T10:19:00;30.90;29.30
15450;DHT22;7826;49.784;9.934;2022-07-17T10:21:30;30.40;29.00
15450;DHT22;7826;49.784;9.934;2022-07-17T10:26:50;29.50;31.50
15450;DHT22;7826;49.784;9.934;2022-07-17T10:29:36;29.10;31.20
15450;DHT22;7826;49.784;9.934;2022-07-17T10:32:07;27.80;31.70
15450;DHT22;7826;49.784;9.934;2022-07-17T10:34:44;27.40;33.40
15450;DHT22;7826;49.784;9.934;2022-07-17T10:37:19;27.20;34.20
15450;DHT22;7826;49.784;9.934;2022-07-17T10:40:10;27.00;34.50
15450;DHT22;7826;49.784;9.934;2022-07-17T10:42:55;26.60;33.10
15450;DHT22;7826;49.784;9.934;2022-07-17T10:48:05;25.90;33.90
15450;DHT22;7826;49.784;9.934;2022-07-17T10:50:37;25.90;35.00
15450;DHT22;7826;49.784;9.934;2022-07-17T10:53:24;25.60;35.10
15450;DHT22;7826;49.784;9.934;2022-07-17T10:55:55;25.50;34.60
15450;DHT22;7826;49.784;9.934;2022-07-17T11:01:05;25.40;34.90
15450;DHT22;7826;49.784;9.934;2022-07-17T11:03:37;25.50;34.90
15450;DHT22;7826;49.784;9.934;2022-07-17T11:06:24;25.70;35.10
15450;DHT22;7826;49.784;9.934;2022-07-17T11:08:53;25.80;34.80
15450;DHT22;7826;49.784;9.934;2022-07-17T11:11:22;25.90;34.00
15450;DHT22;7826;49.784;9.934;2022-07-17T11:13:49;25.90;32.70
15450;DHT22;7826;49.784;9.934;2022-07-17T11:16:29;25.90;32.80
15450;DHT22;7826;49.784;9.934;2022-07-17T11:18:56;25.90;32.80
15450;DHT22;7826;49.784;9.934;2022-07-17T11:21:22;26.00;34.40
15450;DHT22;7826;49.784;9.934;2022-07-17T11:23:54;26.10;34.10
15450;DHT22;7826;49.784;9.934;2022-07-17T11:26:22;25.90;34.40
15450;DHT22;7826;49.784;9.934;2022-07-17T11:28:50;25.90;34.80
15450;DHT22;7826;49.784;9.934;2022-07-17T11:31:26;25.80;34.30
15450;DHT22;7826;49.784;9.934;2022-07-17T11:34:03;25.70;34.80
15450;DHT22;7826;49.784;9.934;2022-07-17T11:36:38;25.80;35.10
15450;DHT22;7826;49.784;9.934;2022-07-17T11:39:08;25.80;35.40
15450;DHT22;7826;49.784;9.934;2022-07-17T11:41:49;25.60;34.70
15450;DHT22;7826;49.784;9.934;2022-07-17T11:44:23;25.60;35.20
15450;DHT22;7826;49.784;9.934;2022-07-17T11:46:50;25.50;34.40
15450;DHT22;7826;49.784;9.934;2022-07-17T11:49:29;25.50;34.90
15450;DHT22;7826;49.784;9.934;2022-07-17T11:51:57;25.70;34.90
15450;DHT22;7826;49.784;9.934;2022-07-17T11:54:25;25.70;34.50
15450;DHT22;7826;49.784;9.934;2022-07-17T11:56:56;25.80;35.20
15450;DHT22;7826;49.784;9.934;2022-07-17T11:59:32;26.00;34.90
15450;DHT22;7826;49.784;9.934;2022-07-17T12:02:16;26.00;34.40
15450;DHT22;7826;49.784;9.934;2022-07-17T12:04:55;26.10;34.00
15450;DHT22;7826;49.784;9.934;2022-07-17T12:07:23;26.20;33.90
15450;DHT22;7826;49.784;9.934;2022-07-17T12:09:51;26.10;33.80
15450;DHT22;7826;49.784;9.934;2022-07-17T12:12:26;26.00;34.00
15450;DHT22;7826;49.784;9.934;2022-07-17T12:14:58;26.10;34.00
15450;DHT22;7826;49.784;9.934;2022-07-17T12:17:36;26.10;34.50
15450;DHT22;7826;49.784;9.934;2022-07-17T12:20:07;26.10;34.10
15450;DHT22;7826;49.784;9.934;2022-07-17T12:22:48;26.10;33.80
15450;DHT22;7826;49.784;9.934;2022-07-17T12:25:28;26.10;34.10
15450;DHT22;7826;49.784;9.934;2022-07-17T12:27:55;26.20;33.60
15450;DHT22;7826;49.784;9.934;2022-07-17T12:30:22;26.20;33.70
15450;DHT22;7826;49.784;9.934;2022-07-17T12:32:48;26.20;34.10
15450;DHT22;7826;49.784;9.934;2022-07-17T12:35:16;26.40;33.80
15450;DHT22;7826;49.784;9.934;2022-07-17T12:37:43;26.50;33.30
15450;DHT22;7826;49.784;9.934;2022-07-17T12:40:09;26.60;33.00
15450;DHT22;7826;49.784;9.934;2022-07-17T12:42:36;26.50;32.50
15450;DHT22;7826;49.784;9.934;2022-07-17T12:45:05;26.50;32.50
15450;DHT22;7826;49.784;9.934;2022-07-17T12:47:31;26.50;33.20
15450;DHT22;7826;49.784;9.934;2022-07-17T12:49:58;26.70;32.90
15450;DHT22;7826;49.784;9.934;2022-07-17T12:52:24;26.70;32.70
15450;DHT22;7826;49.784;9.934;2022-07-17T12:54:50;26.80;32.20
15450;DHT22;7826;49.784;9.934;2022-07-17T12:57:16;26.70;32.30
15450;DHT22;7826;49.784;9.934;2022-07-17T12:59:43;26.70;32.50
15450;DHT22;7826;49.784;9.934;2022-07-17T13:02:09;26.80;32.60
15450;DHT22;7826;49.784;9.934;2022-07-17T13:04:36;26.80;32.40
15450;DHT22;7826;49.784;9.934;2022-07-17T13:07:03;26.70;32.70
15450;DHT22;7826;49.784;9.934;2022-07-17T13:09:29;26.80;33.00
15450;DHT22;7826;49.784;9.934;2022-07-17T13:11:56;26.70;32.70
15450;DHT22;7826;49.784;9.934;2022-07-17T13:14:22;26.60;33.00
15450;DHT22;7826;49.784;9.934;2022-07-17T13:16:48;26.70;33.30
15450;DHT22;7826;49.784;9.934;2022-07-17T13:19:14;26.80;33.50
15450;DHT22;7826;49.784;9.934;2022-07-17T13:21:41;27.00;33.30
15450;DHT22;7826;49.784;9.934;2022-07-17T13:24:07;27.10;33.10
15450;DHT22;7826;49.784;9.934;2022-07-17T13:26:33;27.20;32.90
15450;DHT22;7826;49.784;9.934;2022-07-17T13:29:00;27.10;32.30
15450;DHT22;7826;49.784;9.934;2022-07-17T13:31:26;27.10;31.80
15450;DHT22;7826;49.784;9.934;2022-07-17T13:33:53;27.00;31.30
15450;DHT22;7826;49.784;9.934;2022-07-17T13:36:19;27.10;31.90
15450;DHT22;7826;49.784;9.934;2022-07-17T13:38:48;27.10;31.40
15450;DHT22;7826;49.784;9.934;2022-07-17T13:41:23;27.10;31.10
15450;DHT22;7826;49.784;9.934;2022-07-17T13:43:50;27.10;31.10
15450;DHT22;7826;49.784;9.934;2022-07-17T13:46:16;27.00;31.10
15450;DHT22;7826;49.784;9.934;2022-07-17T13:48:43;27.30;31.30
15450;DHT22;7826;49.784;9.934;2022-07-17T13:51:09;27.30;31.50
15450;DHT22;7826;49.784;9.934;2022-07-17T13:53:35;27.30;31.30
15450;DHT22;7826;49.784;9.934;2022-07-17T13:56:03;27.40;31.20
15450;DHT22;7826;49.784;9.934;2022-07-17T13:58:30;27.50;30.90
15450;DHT22;7826;49.784;9.934;2022-07-17T14:00:59;27.50;30.80
15450;DHT22;7826;49.784;9.934;2022-07-17T14:03:27;27.40;30.40
15450;DHT22;7826;49.784;9.934;2022-07-17T14:05:54;27.40;30.50
15450;DHT22;7826;49.784;9.934;2022-07-17T14:08:21;27.60;30.20
15450;DHT22;7826;49.784;9.934;2022-07-17T14:10:47;27.60;30.30
15450;DHT22;7826;49.784;9.934;2022-07-17T14:13:14;27.70;30.00
15450;DHT22;7826;49.784;9.934;2022-07-17T14:15:49;27.60;30.10
15450;DHT22;7826;49.784;9.934;2022-07-17T14:18:16;27.80;30.10
15450;DHT22;7826;49.784;9.934;2022-07-17T14:20:43;27.90;30.10
15450;DHT22;7826;49.784;9.934;2022-07-17T14:23:10;28.00;30.00
15450;DHT22;7826;49.784;9.934;2022-07-17T14:25:36;28.10;30.10
15450;DHT22;7826;49.784;9.934;2022-07-17T14:28:02;28.10;29.20
15450;DHT22;7826;49.784;9.934;2022-07-17T14:30:28;28.00;29.40
15450;DHT22;7826;49.784;9.934;2022-07-17T14:32:55;28.00;28.90
15450;DHT22;7826;49.784;9.934;2022-07-17T14:35:21;28.00;29.00
15450;DHT22;7826;49.784;9.934;2022-07-17T14:37:48;28.10;29.30
15450;DHT22;7826;49.784;9.934;2022-07-17T14:40:14;28.10;29.00
15450;DHT22;7826;49.784;9.934;2022-07-17T14:42:41;28.00;28.80
15450;DHT22;7826;49.784;9.934;2022-07-17T14:45:08;27.90;29.00
15450;DHT22;7826;49.784;9.934;2022-07-17T14:47:35;28.00;29.00
15450;DHT22;7826;49.784;9.934;2022-07-17T14:50:02;28.00;28.20
15450;DHT22;7826;49.784;9.934;2022-07-17T14:52:28;27.90;28.20
15450;DHT22;7826;49.784;9.934;2022-07-17T14:54:55;27.90;28.30
15450;DHT22;7826;49.784;9.934;2022-07-17T14:57:21;28.00;28.50
15450;DHT22;7826;49.784;9.934;2022-07-17T14:59:50;27.90;28.30
15450;DHT22;7826;49.784;9.934;2022-07-17T15:02:18;27.80;28.10
15450;DHT22;7826;49.784;9.934;2022-07-17T15:04:45;27.90;28.40
15450;DHT22;7826;49.784;9.934;2022-07-17T15:07:11;27.90;28.20
15450;DHT22;7826;49.784;9.934;2022-07-17T15:09:37;28.00;28.20
15450;DHT22;7826;49.784;9.934;2022-07-17T15:12:04;28.00;28.10
15450;DHT22;7826;49.784;9.934;2022-07-17T15:14:30;28.00;28.40
15450;DHT22;7826;49.784;9.934;2022-07-17T15:16:57;28.00;28.10
15450;DHT22;7826;49.784;9.934;2022-07-17T15:19:23;28.00;27.80
15450;DHT22;7826;49.784;9.934;2022-07-17T15:21:49;28.00;28.00
15450;DHT22;7826;49.784;9.934;2022-07-17T15:24:16;28.00;27.80
15450;DHT22;7826;49.784;9.934;2022-07-17T15:26:43;27.80;27.70
15450;DHT22;7826;49.784;9.934;2022-07-17T15:29:10;27.80;27.90
15450;DHT22;7826;49.784;9.934;2022-07-17T15:31:37;27.80;28.30
15450;DHT22;7826;49.784;9.934;2022-07-17T15:34:03;27.90;28.00
15450;DHT22;7826;49.784;9.934;2022-07-17T15:36:29;27.90;28.10
15450;DHT22;7826;49.784;9.934;2022-07-17T15:38:57;27.80;28.10
15450;DHT22;7826;49.784;9.934;2022-07-17T15:41:26;27.70;28.10
15450;DHT22;7826;49.784;9.934;2022-07-17T15:43:52;27.80;28.00
15450;DHT22;7826;49.784;9.934;2022-07-17T15:46:19;27.70;28.10
15450;DHT22;7826;49.784;9.934;2022-07-17T15:48:45;27.70;28.10
15450;DHT22;7826;49.784;9.934;2022-07-17T15:51:12;27.80;28.20
15450;DHT22;7826;49.784;9.934;2022-07-17T15:53:39;27.80;27.70
15450;DHT22;7826;49.784;9.934;2022-07-17T15:56:05;27.90;27.90
15450;DHT22;7826;49.784;9.934;2022-07-17T15:58:31;27.80;27.80
15450;DHT22;7826;49.784;9.934;2022-07-17T16:00:58;27.90;27.80
15450;DHT22;7826;49.784;9.934;2022-07-17T16:03:24;27.90;27.90
15450;DHT22;7826;49.784;9.934;2022-07-17T16:05:50;27.90;27.70
15450;DHT22;7826;49.784;9.934;2022-07-17T16:08:17;27.90;27.70
15450;DHT22;7826;49.784;9.934;2022-07-17T16:10:43;27.90;27.60